Time;durP1;ratioP1;P1;durP2;ratioP2;P2;SDS_P1;SDS_P2;PMS_P1;PMS_P2;Temp;Humidity;BMP_temperature;BMP_pressure;BME280_temperature;BME280_humidity;BME280_pressure;Samples;Min_cycle;Max_cycle;Signal;HPM_P1;HPM_P2
2022/04/04 00:01:01;;;;;;;16.50;8.30;;;;;;;-4.28;91.79;96904.25;2068468;28;20233;-69
2022/04/04 00:02:04;;;;;;;16.42;8.50;;;;;;;-4.22;91.55;96906.75;2067258;28;20202;-69
2022/04/04 00:03:07;;;;;;;13.30;8.02;;;;;;;-4.24;90.82;96895.69;2069138;28;20194;-69
2022/04/04 00:04:09;;;;;;;15.15;7.78;;;;;;;-4.07;90.32;96899.88;2070274;28;20588;-69
2022/04/04 00:05:11;;;;;;;18.13;11.32;;;;;;;-4.28;90.24;96878.66;2070943;28;20299;-69
2022/04/04 00:06:13;;;;;;;18.58;9.52;;;;;;;-4.14;90.49;96903.31;2067196;28;20238;-69
2022/04/04 00:07:14;;;;;;;16.70;8.45;;;;;;;-4.15;90.46;96896.53;2066075;28;20202;-69
2022/04/04 00:08:16;;;;;;;18.80;10.20;;;;;;;-4.13;90.42;96905.88;2068033;28;20194;-69
2022/04/04 00:09:17;;;;;;;15.35;8.35;;;;;;;-4.22;90.67;96891.41;2066511;28;20581;-70
2022/04/04 00:10:19;;;;;;;16.88;9.13;;;;;;;-4.22;90.77;96900.81;2068543;28;20201;-69
2022/04/04 00:11:20;;;;;;;15.32;9.20;;;;;;;-4.26;91.28;96892.28;2067680;28;20221;-70
2022/04/04 00:12:22;;;;;;;11.98;8.05;;;;;;;-4.20;90.81;96889.69;2068634;28;20193;-70
2022/04/04 00:13:23;;;;;;;15.15;9.15;;;;;;;-4.17;90.31;96899.09;2073976;28;20213;-70
2022/04/04 00:14:25;;;;;;;11.02;7.63;;;;;;;-4.12;90.39;96896.47;2076309;28;20200;-70
2022/04/04 00:15:27;;;;;;;23.50;9.05;;;;;;;-4.09;89.73;96896.47;2068846;28;20205;-67
2022/04/04 00:16:29;;;;;;;12.80;7.75;;;;;;;-4.13;90.00;96898.19;2068094;28;20198;-70
2022/04/04 00:17:30;;;;;;;14.30;7.93;;;;;;;-4.09;90.21;96897.31;2069713;28;20206;-70
2022/04/04 00:18:32;;;;;;;16.73;8.35;;;;;;;-4.10;89.93;96897.31;2069926;28;20206;-70
2022/04/04 00:19:33;;;;;;;17.65;7.80;;;;;;;-4.12;90.19;96897.31;2067880;28;20198;-70
2022/04/04 00:20:35;;;;;;;12.38;8.40;;;;;;;-4.10;90.54;96900.72;2067480;28;20221;-70
2022/04/04 00:21:37;;;;;;;15.02;9.02;;;;;;;-4.17;90.74;96899.09;2066958;28;20199;-70
2022/04/04 00:22:39;;;;;;;12.30;7.70;;;;;;;-4.21;90.61;96874.38;2068233;28;20212;-70
2022/04/04 00:23:41;;;;;;;12.70;8.45;;;;;;;-4.16;89.84;96895.66;2067673;28;20611;-70
2022/04/04 00:24:43;;;;;;;14.00;8.98;;;;;;;-4.14;90.14;96887.97;2077270;28;20587;-70
2022/04/04 00:25:46;;;;;;;14.75;8.45;;;;;;;-4.14;89.91;96893.94;2074356;28;20202;-70
2022/04/04 00:26:48;;;;;;;14.25;8.13;;;;;;;-4.24;90.35;96895.69;2069358;28;20205;-70
2022/04/04 00:27:50;;;;;;;15.15;8.80;;;;;;;-4.17;90.73;96893.97;2067738;28;20215;-70
2022/04/04 00:28:52;;;;;;;18.70;9.55;;;;;;;-4.26;90.32;96894.00;2067727;28;20194;-70
2022/04/04 00:29:54;;;;;;;14.45;7.68;;;;;;;-4.35;90.50;96900.03;2067443;28;20197;-70
2022/04/04 00:30:55;;;;;;;19.42;8.70;;;;;;;-4.43;90.66;96877.06;2067816;28;20225;-70
2022/04/04 00:31:57;;;;;;;13.77;7.63;;;;;;;-4.39;90.30;96888.97;2066265;28;20202;-70
2022/04/04 00:32:58;;;;;;;21.98;9.23;;;;;;;-4.39;90.78;96888.09;2067774;28;20207;-70
2022/04/04 00:34:00;;;;;;;14.27;8.30;;;;;;;-4.31;90.56;96888.94;2068614;28;20209;-70
2022/04/04 00:35:02;;;;;;;15.43;7.75;;;;;;;-4.41;90.56;96880.47;2067597;28;20209;-70
2022/04/04 00:36:04;;;;;;;16.05;7.85;;;;;;;-4.37;90.87;96881.28;2068245;28;20225;-70
2022/04/04 00:37:05;;;;;;;14.15;8.25;;;;;;;-4.28;89.80;96888.06;2077333;28;20193;-70
2022/04/04 00:38:08;;;;;;;16.30;8.68;;;;;;;-4.18;89.51;96898.22;2075086;28;20235;-70
2022/04/04 00:39:11;;;;;;;13.43;7.72;;;;;;;-4.37;90.05;96887.25;2069843;28;20205;-70
2022/04/04 00:40:12;;;;;;;13.32;8.25;;;;;;;-4.39;90.11;96896.63;2067311;28;20202;-70
2022/04/04 00:41:15;;;;;;;13.60;8.10;;;;;;;-4.40;90.32;96894.09;2068181;28;20228;-70
2022/04/04 00:42:17;;;;;;;12.63;7.55;;;;;;;-4.47;90.79;96894.97;2068768;28;20243;-70
2022/04/04 00:43:19;;;;;;;12.00;7.28;;;;;;;-4.42;91.00;96898.34;2069049;28;20198;-70
2022/04/04 00:44:21;;;;;;;12.98;7.32;;;;;;;-4.45;90.83;96898.34;2069809;28;20198;-70
2022/04/04 00:45:23;;;;;;;16.40;8.88;;;;;;;-4.51;90.53;96901.78;2068524;28;20205;-70
2022/04/04 00:46:24;;;;;;;12.45;7.97;;;;;;;-4.62;90.85;96895.91;2067530;28;20221;-70
2022/04/04 00:47:26;;;;;;;16.77;8.98;;;;;;;-4.61;90.59;96872.03;2075430;28;20209;-70
2022/04/04 00:48:28;;;;;;;15.68;8.75;;;;;;;-4.54;90.45;96890.75;2065661;28;20205;-71
2022/04/04 00:49:29;;;;;;;17.83;8.98;;;;;;;-4.74;90.67;96861.03;2066795;28;20202;-71
2022/04/04 00:50:31;;;;;;;16.80;9.40;;;;;;;-4.56;90.54;96900.97;2068969;28;20202;-70
2022/04/04 00:51:33;;;;;;;16.65;7.72;;;;;;;-4.57;90.70;96895.03;2066094;28;20198;-71
2022/04/04 00:52:34;;;;;;;14.07;7.25;;;;;;;-4.62;89.93;96876.28;2067775;28;20205;-71
2022/04/04 00:53:36;;;;;;;13.27;6.95;;;;;;;-4.63;89.92;96892.47;2069656;28;20547;-70
2022/04/04 00:54:37;;;;;;;12.25;6.82;;;;;;;-4.57;89.82;96881.38;2080795;28;20200;-70
2022/04/04 00:55:39;;;;;;;15.63;8.10;;;;;;;-4.51;89.64;96885.59;2080102;28;20201;-71
2022/04/04 00:56:41;;;;;;;10.80;7.10;;;;;;;-4.69;89.72;96887.38;2068532;28;20202;-70
2022/04/04 00:57:42;;;;;;;17.95;7.70;;;;;;;-4.79;90.31;96872.97;2072301;28;20202;-70
2022/04/04 00:58:44;;;;;;;11.60;7.45;;;;;;;-4.81;90.75;96882.34;2071889;28;20214;-70
2022/04/04 00:59:47;;;;;;;12.30;7.05;;;;;;;-5.00;90.90;96856.88;2068983;28;20769;-70
2022/04/04 01:00:49;;;;;;;14.95;7.38;;;;;;;-4.68;91.34;96889.09;2068534;28;20229;-70
2022/04/04 01:01:51;;;;;;;12.55;7.63;;;;;;;-4.76;90.80;96849.94;2070093;28;20198;-70
2022/04/04 01:02:52;;;;;;;15.05;7.47;;;;;;;-4.58;90.17;96877.97;2068809;28;20737;-70
2022/04/04 01:03:54;;;;;;;15.77;8.07;;;;;;;-4.56;90.03;96885.66;2068834;28;20653;-70
2022/04/04 01:04:55;;;;;;;11.35;6.85;;;;;;;-4.85;90.09;96842.31;2070350;28;20210;-71
2022/04/04 01:05:59;;;;;;;12.30;7.50;;;;;;;-4.53;89.71;96883.06;2069975;28;20343;-70
2022/04/04 01:07:01;;;;;;;11.15;7.05;;;;;;;-4.58;89.64;96884.81;2069054;28;20221;-71
2022/04/04 01:08:03;;;;;;;13.00;7.68;;;;;;;-4.65;89.81;96871.19;2070205;28;20205;-70
2022/04/04 01:09:05;;;;;;;16.05;7.22;;;;;;;-4.58;89.80;96877.97;2072657;28;20583;-70
2022/04/04 01:10:09;;;;;;;14.43;6.40;;;;;;;-4.52;89.48;96895.00;2070067;28;20205;-70
2022/04/04 01:11:11;;;;;;;10.50;6.80;;;;;;;-4.59;89.70;96890.75;2067500;28;20237;-70
2022/04/04 01:12:13;;;;;;;12.05;6.35;;;;;;;-4.64;89.54;96884.84;2075870;28;20194;-70
2022/04/04 01:13:15;;;;;;;10.50;6.70;;;;;;;-4.83;89.78;96861.06;2077141;28;20204;-70
2022/04/04 01:14:17;;;;;;;9.45;5.80;;;;;;;-4.67;90.01;96882.28;2070170;28;20228;-70
2022/04/04 01:15:22;;;;;;;10.35;6.18;;;;;;;-4.66;89.80;96878.88;2068258;28;20203;-70
2022/04/04 01:16:24;;;;;;;13.85;6.63;;;;;;;-4.65;90.12;96891.63;2068854;28;20221;-70
2022/04/04 01:17:27;;;;;;;10.95;6.57;;;;;;;-4.75;89.97;96866.97;2069877;28;20297;-70
2022/04/04 01:18:28;;;;;;;11.30;6.13;;;;;;;-4.65;90.19;96885.69;2070557;28;20530;-70
2022/04/04 01:19:31;;;;;;;9.23;5.38;;;;;;;-4.82;89.80;96852.50;2071490;28;20206;-70
2022/04/04 01:20:33;;;;;;;10.40;5.60;;;;;;;-4.66;90.06;96884.84;2067536;28;20527;-71
2022/04/04 01:21:34;;;;;;;12.00;5.57;;;;;;;-4.67;89.94;96884.84;2068629;28;20193;-70
2022/04/04 01:22:36;;;;;;;9.95;5.85;;;;;;;-4.74;90.01;96876.34;2069677;28;20209;-70
2022/04/04 01:23:43;;;;;;;13.20;5.97;;;;;;;-4.65;89.91;96883.13;2066947;28;20203;-71
2022/04/04 01:24:44;;;;;;;7.55;4.68;;;;;;;-4.60;89.42;96872.03;2071986;28;20198;-71
2022/04/04 01:25:46;;;;;;;9.57;6.05;;;;;;;-4.52;89.41;96879.66;2069888;28;20202;-71
2022/04/04 01:26:49;;;;;;;8.45;5.40;;;;;;;-4.69;89.27;96843.94;2070340;28;20641;-70
2022/04/04 01:27:51;;;;;;;10.30;6.18;;;;;;;-4.59;88.73;96865.19;2067369;28;20201;-70
2022/04/04 01:28:52;;;;;;;13.93;6.65;;;;;;;-4.63;89.10;96876.28;2070033;28;20205;-71
2022/04/04 01:29:54;;;;;;;17.13;6.28;;;;;;;-4.66;89.10;96869.50;2070126;28;20194;-70
2022/04/04 01:30:55;;;;;;;9.10;5.18;;;;;;;-4.61;88.90;96862.63;2070123;28;20585;-70
2022/04/04 01:31:58;;;;;;;8.40;5.53;;;;;;;-4.66;89.38;96869.50;2067766;28;20237;-70
2022/04/04 01:33:00;;;;;;;9.45;5.55;;;;;;;-4.66;89.50;96859.28;2068194;28;20206;-70
2022/04/04 01:34:01;;;;;;;11.40;5.90;;;;;;;-4.75;89.89;96863.56;2069820;28;20224;-70
2022/04/04 01:35:03;;;;;;;12.82;5.95;;;;;;;-4.92;89.71;96832.97;2072398;28;20209;-70
2022/04/04 01:36:05;;;;;;;12.88;6.38;;;;;;;-4.80;89.95;96855.94;2071695;28;20222;-70
2022/04/04 01:37:07;;;;;;;10.23;5.82;;;;;;;-5.01;90.42;96829.59;2067865;28;20206;-70
2022/04/04 01:38:09;;;;;;;11.02;6.25;;;;;;;-4.90;90.20;96839.78;2079791;28;20208;-70
2022/04/04 01:39:10;;;;;;;10.80;6.10;;;;;;;-4.79;90.11;96852.50;2080401;28;20210;-70
2022/04/04 01:40:12;;;;;;;11.13;6.15;;;;;;;-4.69;89.71;96859.28;2069531;28;20213;-70
2022/04/04 01:41:14;;;;;;;10.20;5.75;;;;;;;-4.97;89.75;96823.63;2067849;28;20237;-70
2022/04/04 01:42:16;;;;;;;10.02;5.85;;;;;;;-4.83;89.89;96846.56;2068823;28;20202;-70
2022/04/04 01:43:18;;;;;;;11.27;5.53;;;;;;;-4.74;89.74;96860.16;2068864;28;20206;-70
2022/04/04 01:44:20;;;;;;;15.15;6.07;;;;;;;-4.85;89.83;96852.53;2068948;28;20210;-70
2022/04/04 01:46:43;;;;;;;10.95;5.10;;;;;;;-4.92;89.57;96850.84;2070859;28;20218;-70
2022/04/04 01:47:45;;;;;;;11.35;5.82;;;;;;;-4.85;89.77;96844.88;2071720;28;20600;-70
2022/04/04 01:48:47;;;;;;;10.73;6.03;;;;;;;-4.91;89.69;96837.25;2068486;28;20277;-70
2022/04/04 01:49:49;;;;;;;11.18;6.05;;;;;;;-4.70;89.61;96856.75;2068906;28;20204;-70
2022/04/04 01:50:50;;;;;;;8.40;5.65;;;;;;;-4.66;89.17;96848.22;2070017;28;20732;-70
2022/04/04 01:51:52;;;;;;;9.82;6.10;;;;;;;-4.97;88.91;96807.44;2070602;28;20763;-70
2022/04/04 01:53:25;;;;;;;11.57;6.10;;;;;;;-4.77;89.06;96855.91;2067189;28;20201;-70
2022/04/04 01:54:20;;;;;;;13.48;5.68;;;;;;;-4.81;88.99;96839.72;2068818;28;20206;-70
2022/04/04 01:55:21;;;;;;;8.25;4.47;;;;;;;-4.77;89.39;96851.63;2067371;28;20201;-71
2022/04/04 01:56:23;;;;;;;9.30;5.40;;;;;;;-4.74;89.74;96849.91;2068945;28;20233;-71
2022/04/04 01:57:25;;;;;;;11.75;5.00;;;;;;;-4.82;89.48;96840.59;2069369;28;20202;-70
2022/04/04 01:58:27;;;;;;;6.15;4.15;;;;;;;-4.72;89.41;96848.22;2067620;28;20314;-70
2022/04/04 01:59:29;;;;;;;8.98;4.55;;;;;;;-4.75;89.35;96849.09;2067512;28;20221;-71
2022/04/04 02:00:31;;;;;;;11.57;6.03;;;;;;;-4.89;89.45;96830.41;2069482;28;20217;-70
2022/04/04 02:01:34;;;;;;;7.82;5.03;;;;;;;-4.67;89.48;96844.78;2068413;28;20572;-70
2022/04/04 02:02:37;;;;;;;8.85;5.07;;;;;;;-4.63;88.57;96843.91;2063856;28;20257;-71
2022/04/04 02:03:39;;;;;;;8.65;3.95;;;;;;;-4.71;88.74;96847.38;2067607;28;20207;-70
2022/04/04 02:04:41;;;;;;;7.60;4.90;;;;;;;-4.74;89.28;96857.59;2069298;28;20206;-70
2022/04/04 02:05:42;;;;;;;9.00;4.38;;;;;;;-4.81;89.53;96846.56;2067581;28;20194;-70
2022/04/04 02:06:44;;;;;;;8.85;5.20;;;;;;;-4.85;89.74;96837.22;2069329;28;20297;-71
2022/04/04 02:07:46;;;;;;;9.13;4.72;;;;;;;-4.79;89.94;96849.94;2070470;28;20198;-71
2022/04/04 02:08:48;;;;;;;10.85;6.05;;;;;;;-4.81;90.03;96849.13;2068489;28;20198;-71
2022/04/04 02:09:50;;;;;;;10.10;5.88;;;;;;;-4.81;90.17;96839.72;2068516;28;20633;-70
2022/04/04 02:10:51;;;;;;;10.13;5.10;;;;;;;-4.93;89.79;96838.94;2067477;28;20257;-71
2022/04/04 02:11:53;;;;;;;7.03;4.35;;;;;;;-4.97;89.46;96838.09;2080233;28;20205;-70
2022/04/04 02:12:54;;;;;;;7.35;4.55;;;;;;;-5.05;89.57;96829.63;2079931;28;20738;-70
2022/04/04 02:13:57;;;;;;;5.50;4.00;;;;;;;-4.92;89.34;96830.41;2069041;28;20198;-70
2022/04/04 02:14:59;;;;;;;7.00;4.00;;;;;;;-4.76;88.80;96834.63;2066155;28;20195;-70
2022/04/04 02:16:02;;;;;;;9.52;4.18;;;;;;;-4.81;88.38;96836.34;2067399;28;20221;-70
2022/04/04 02:17:05;;;;;;;5.53;3.97;;;;;;;-4.90;88.79;96823.59;2071576;28;20210;-70
2022/04/04 02:18:07;;;;;;;9.30;4.85;;;;;;;-4.88;88.73;96834.66;2071927;28;20194;-70
2022/04/04 02:19:09;;;;;;;8.80;4.30;;;;;;;-4.94;89.71;96829.56;2069313;28;20205;-70
2022/04/04 02:20:11;;;;;;;6.28;4.00;;;;;;;-4.95;89.87;96833.84;2067183;28;20213;-70
2022/04/04 02:21:13;;;;;;;5.20;3.97;;;;;;;-5.02;90.11;96821.94;2068115;28;20328;-70
2022/04/04 02:22:14;;;;;;;7.22;4.53;;;;;;;-5.02;89.99;96830.47;2070419;28;20558;-70
2022/04/04 02:23:18;;;;;;;9.20;4.95;;;;;;;-4.96;90.13;96834.69;2068451;28;20237;-70
2022/04/04 02:24:20;;;;;;;8.20;4.25;;;;;;;-4.99;90.09;96833.00;2080203;28;20834;-70
2022/04/04 02:25:22;;;;;;;8.25;4.55;;;;;;;-5.02;89.87;96829.59;2079879;28;20205;-70
2022/04/04 02:26:23;;;;;;;7.15;4.28;;;;;;;-5.04;90.24;96832.16;2069051;28;20702;-70
2022/04/04 02:27:25;;;;;;;7.82;4.22;;;;;;;-5.01;90.10;96829.59;2067857;28;20283;-71
2022/04/04 02:28:28;;;;;;;7.45;4.30;;;;;;;-5.02;89.98;96833.03;2069824;28;20207;-71
2022/04/04 02:29:29;;;;;;;7.70;4.30;;;;;;;-5.13;90.50;96826.25;2070160;28;20198;-70
2022/04/04 02:30:31;;;;;;;9.25;4.90;;;;;;;-5.10;90.30;96827.06;2066142;28;20723;-70
2022/04/04 02:31:32;;;;;;;8.40;5.68;;;;;;;-5.21;90.34;96809.25;2069079;28;20536;-70
2022/04/04 02:32:35;;;;;;;6.85;4.60;;;;;;;-5.13;90.69;96821.16;2069659;28;20209;-70
2022/04/04 02:33:36;;;;;;;10.40;5.10;;;;;;;-5.23;90.04;96818.63;2069392;28;20672;-70
2022/04/04 02:34:38;;;;;;;6.97;4.53;;;;;;;-5.24;89.94;96813.50;2068476;28;20224;-71
2022/04/04 02:35:39;;;;;;;7.88;4.32;;;;;;;-5.38;89.83;96790.56;2069324;28;20288;-71
2022/04/04 02:36:41;;;;;;;7.00;4.78;;;;;;;-5.21;89.46;96821.16;2076974;28;20219;-70
2022/04/04 02:37:43;;;;;;;5.88;3.63;;;;;;;-5.04;89.22;96810.88;2071547;28;20657;-71
2022/04/04 02:38:45;;;;;;;7.35;4.20;;;;;;;-5.04;88.67;96813.44;2072070;28;20224;-70
2022/04/04 02:39:46;;;;;;;6.47;4.20;;;;;;;-5.04;88.70;96806.59;2077752;28;20210;-71
2022/04/04 02:40:48;;;;;;;6.85;4.63;;;;;;;-4.97;88.71;96813.41;2068599;28;20569;-71
2022/04/04 02:41:50;;;;;;;6.10;4.50;;;;;;;-5.04;88.77;96816.81;2071317;28;20201;-71
2022/04/04 02:42:52;;;;;;;6.35;4.10;;;;;;;-4.97;88.37;96813.41;2071862;28;20337;-71
2022/04/04 02:43:53;;;;;;;7.30;5.10;;;;;;;-5.00;88.18;96808.31;2068235;28;20213;-71
2022/04/04 02:44:55;;;;;;;9.18;4.45;;;;;;;-4.93;87.94;96818.50;2067795;28;20191;-70
2022/04/04 02:45:57;;;;;;;7.03;4.15;;;;;;;-5.07;87.40;96798.97;2068406;28;20226;-71
2022/04/04 02:46:58;;;;;;;12.27;4.25;;;;;;;-4.97;87.59;96805.75;2068631;28;20257;-71
2022/04/04 02:48:00;;;;;;;6.10;4.25;;;;;;;-4.99;88.10;96815.13;2069675;28;20635;-71
2022/04/04 02:49:01;;;;;;;7.10;4.15;;;;;;;-5.15;88.32;96798.16;2070500;28;20197;-71
2022/04/04 02:50:04;;;;;;;10.27;4.53;;;;;;;-5.27;88.43;96778.63;2069318;28;20204;-71
2022/04/04 02:51:07;;;;;;;6.60;4.25;;;;;;;-5.08;88.29;96798.97;2067053;28;20234;-71
2022/04/04 02:52:08;;;;;;;6.93;3.95;;;;;;;-4.91;88.24;96817.63;2070739;28;20712;-71
2022/04/04 02:53:10;;;;;;;7.63;4.70;;;;;;;-5.00;87.78;96818.53;2061659;28;20868;-71
2022/04/04 02:54:12;;;;;;;6.32;4.13;;;;;;;-5.02;88.39;96815.16;2066344;28;20211;-71
2022/04/04 02:56:36;;;;;;;8.15;4.22;;;;;;;-5.10;87.79;96790.47;2069737;28;20723;-71
2022/04/04 02:57:38;;;;;;;7.82;4.47;;;;;;;-4.86;87.59;96804.84;2070869;28;20722;-71
2022/04/04 02:58:39;;;;;;;7.22;3.53;;;;;;;-5.04;87.20;96790.44;2069607;28;20206;-71
2022/04/04 02:59:41;;;;;;;9.30;4.03;;;;;;;-5.10;87.29;96782.81;2069517;28;20206;-71
2022/04/04 03:00:42;;;;;;;8.73;4.93;;;;;;;-5.02;87.94;96798.94;2067967;28;20209;-71
2022/04/04 03:01:50;;;;;;;6.97;4.50;;;;;;;-5.00;87.80;96803.22;2069370;28;20198;-71
2022/04/04 03:02:53;;;;;;;6.43;3.70;;;;;;;-5.20;88.07;96771.78;2069146;28;20669;-71
2022/04/04 03:03:55;;;;;;;4.45;3.30;;;;;;;-4.98;87.84;96798.94;2068805;28;20233;-71
2022/04/04 03:04:56;;;;;;;7.30;4.32;;;;;;;-4.91;87.70;96807.41;2069997;28;20205;-71
2022/04/04 03:05:58;;;;;;;7.70;4.13;;;;;;;-5.19;87.90;96769.22;2069330;28;20227;-71
2022/04/04 03:07:00;;;;;;;5.80;3.70;;;;;;;-5.14;87.86;96802.41;2068932;28;20664;-71
2022/04/04 03:08:04;;;;;;;12.93;4.55;;;;;;;-5.30;88.41;96793.09;2069989;28;20236;-71
2022/04/04 03:09:06;;;;;;;8.40;4.45;;;;;;;-5.23;88.68;96800.75;2078709;28;20205;-71
2022/04/04 03:10:09;;;;;;;5.60;3.97;;;;;;;-5.21;88.77;96805.84;2079543;28;20205;-71
2022/04/04 03:11:10;;;;;;;4.72;3.50;;;;;;;-5.32;88.69;96794.81;2067923;28;20225;-71
2022/04/04 03:12:12;;;;;;;7.22;4.60;;;;;;;-5.33;88.79;96801.63;2067807;28;20210;-71
2022/04/04 03:13:13;;;;;;;6.68;4.45;;;;;;;-5.36;89.30;96814.41;2067573;28;20198;-71
2022/04/04 03:14:15;;;;;;;5.97;3.75;;;;;;;-5.34;89.21;96810.13;2068106;28;20652;-71
2022/04/04 03:15:22;;;;;;;6.15;3.85;;;;;;;-5.39;89.06;96787.19;2068578;28;20198;-71
2022/04/04 03:16:24;;;;;;;7.00;4.22;;;;;;;-5.47;89.27;96776.16;2067262;28;20713;-71
2022/04/04 03:17:26;;;;;;;6.38;4.22;;;;;;;-5.26;89.38;96810.13;2069642;28;20202;-71
2022/04/04 03:18:27;;;;;;;8.15;3.97;;;;;;;-5.29;89.00;96808.44;2069951;28;20199;-71
2022/04/04 03:19:29;;;;;;;12.45;4.13;;;;;;;-5.18;89.04;96810.94;2076763;28;20236;-71
2022/04/04 03:20:32;;;;;;;7.25;4.20;;;;;;;-5.16;88.93;96817.72;2074583;28;20296;-70
2022/04/04 03:21:34;;;;;;;7.80;3.70;;;;;;;-5.24;88.62;96811.78;2068149;28;20833;-71
2022/04/04 03:22:42;;;;;;;6.68;3.92;;;;;;;-5.54;88.71;96764.25;2069655;28;20201;-71
2022/04/04 03:23:43;;;;;;;4.43;3.55;;;;;;;-5.28;88.73;96814.38;2070524;28;20303;-71
2022/04/04 03:24:45;;;;;;;8.90;3.60;;;;;;;-5.49;88.95;96782.09;2068531;28;20257;-71
2022/04/04 03:25:47;;;;;;;23.38;4.50;;;;;;;-5.46;89.26;96782.09;2068795;28;20225;-71
2022/04/04 03:26:48;;;;;;;11.18;4.82;;;;;;;-5.34;89.06;96802.47;2070779;28;20205;-71
2022/04/04 03:27:51;;;;;;;6.65;4.30;;;;;;;-5.32;89.06;96805.88;2071461;28;20220;-71
2022/04/04 03:28:53;;;;;;;7.07;4.00;;;;;;;-5.38;89.05;96796.53;2071536;28;20209;-70
2022/04/04 03:29:54;;;;;;;11.65;3.88;;;;;;;-5.40;89.19;96802.50;2070628;28;20197;-71
2022/04/04 03:30:56;;;;;;;7.53;4.65;;;;;;;-5.40;89.08;96802.50;2068578;28;20580;-70
2022/04/04 03:31:58;;;;;;;9.52;4.50;;;;;;;-5.32;89.25;96792.25;2069058;28;20198;-71
2022/04/04 03:33:00;;;;;;;8.00;4.32;;;;;;;-5.54;88.49;96769.34;2068200;28;20652;-70
2022/04/04 03:34:03;;;;;;;5.75;4.38;;;;;;;-5.37;88.52;96795.69;2078772;28;20222;-71
2022/04/04 03:35:06;;;;;;;7.82;4.05;;;;;;;-5.37;88.49;96803.34;2078877;28;20204;-70
2022/04/04 03:36:08;;;;;;;6.18;3.97;;;;;;;-5.33;88.68;96805.88;2067792;28;20222;-70
2022/04/04 03:37:11;;;;;;;11.40;4.85;;;;;;;-5.30;88.92;96808.44;2067420;28;20561;-71
2022/04/04 03:38:13;;;;;;;9.73;5.13;;;;;;;-5.32;88.82;96813.53;2068157;28;20203;-70
2022/04/04 03:39:16;;;;;;;7.05;4.47;;;;;;;-5.37;88.85;96807.56;2068122;28;20225;-70
2022/04/04 03:40:19;;;;;;;7.18;4.25;;;;;;;-5.45;89.03;96801.66;2069196;28;20206;-70
2022/04/04 03:41:20;;;;;;;6.30;4.30;;;;;;;-5.46;89.26;96797.41;2068978;28;20230;-70
2022/04/04 03:42:22;;;;;;;5.70;3.78;;;;;;;-5.57;88.55;96787.22;2067981;28;20210;-70
2022/04/04 03:43:24;;;;;;;10.00;4.32;;;;;;;-5.48;88.92;96797.41;2075408;28;20197;-70
2022/04/04 03:44:26;;;;;;;8.95;4.57;;;;;;;-5.52;88.68;96799.97;2079207;28;20197;-70
2022/04/04 03:45:28;;;;;;;9.23;4.70;;;;;;;-5.50;88.75;96786.34;2078664;28;20193;-69
2022/04/04 03:46:30;;;;;;;8.80;4.38;;;;;;;-5.48;88.84;96789.75;2071217;28;20740;-70
2022/04/04 03:47:32;;;;;;;10.68;5.03;;;;;;;-5.42;88.28;96799.09;2070964;28;20672;-70
2022/04/04 03:48:34;;;;;;;8.57;4.65;;;;;;;-5.43;88.43;96784.63;2068392;28;20980;-70
2022/04/04 03:49:37;;;;;;;9.55;5.22;;;;;;;-5.66;88.25;96765.13;2067483;28;20289;-70
2022/04/04 03:50:39;;;;;;;7.20;4.15;;;;;;;-5.34;88.14;96799.91;2066901;28;20195;-70
2022/04/04 03:51:40;;;;;;;8.88;5.13;;;;;;;-5.30;87.90;96788.00;2067535;28;20194;-70
2022/04/04 03:52:44;;;;;;;7.20;4.10;;;;;;;-5.22;87.53;96799.03;2068407;28;20533;-71
2022/04/04 03:53:45;;;;;;;9.10;5.50;;;;;;;-5.31;87.42;96799.94;2067997;28;20759;-70
2022/04/04 03:54:47;;;;;;;6.68;4.10;;;;;;;-5.44;87.75;96788.03;2074104;28;20197;-70
2022/04/04 03:55:50;;;;;;;8.40;4.53;;;;;;;-5.47;87.86;96804.22;2076945;28;20227;-70
2022/04/04 03:56:52;;;;;;;7.65;4.25;;;;;;;-6.38;88.65;96659.00;2077999;28;20217;-70
2022/04/04 03:57:54;;;;;;;8.00;4.40;;;;;;;-5.60;89.18;96797.44;2079526;28;20201;-70
2022/04/04 03:58:56;;;;;;;6.55;4.15;;;;;;;-5.60;89.34;96792.34;2068221;28;20697;-70
2022/04/04 03:59:58;;;;;;;9.57;5.07;;;;;;;-5.49;88.83;96810.16;2067742;28;20200;-70
2022/04/04 04:00:59;;;;;;;10.23;4.65;;;;;;;-5.50;88.84;96809.31;2068323;28;20222;-70
2022/04/04 04:02:01;;;;;;;8.52;4.90;;;;;;;-5.60;88.76;96787.22;2069096;28;21203;-70
2022/04/04 04:03:03;;;;;;;7.63;5.13;;;;;;;-5.56;89.02;96796.59;2068266;28;20688;-70
2022/04/04 04:04:04;;;;;;;9.05;4.90;;;;;;;-5.47;88.67;96799.13;2078977;28;20197;-70
2022/04/04 04:05:07;;;;;;;7.22;4.65;;;;;;;-5.56;88.47;96792.31;2079485;28;20325;-70
2022/04/04 04:06:11;;;;;;;12.05;4.80;;;;;;;-5.60;88.25;96805.09;2069243;28;20230;-70
2022/04/04 04:07:18;;;;;;;7.00;4.50;;;;;;;-5.59;88.19;96797.41;2065355;28;20736;-70
2022/04/04 04:08:21;;;;;;;8.98;4.45;;;;;;;-5.64;87.82;96798.31;2067297;28;20209;-70
2022/04/04 04:09:23;;;;;;;5.60;3.80;;;;;;;-5.64;88.53;96791.50;2070578;28;20212;-70
2022/04/04 04:10:24;;;;;;;7.63;3.92;;;;;;;-5.73;88.30;96773.63;2067188;28;20193;-70
2022/04/04 04:11:27;;;;;;;8.32;4.80;;;;;;;-5.60;88.10;96794.91;2077817;28;20228;-70
2022/04/04 04:12:29;;;;;;;21.00;4.75;;;;;;;-5.52;87.59;96785.50;2074764;28;20201;-70
2022/04/04 04:13:31;;;;;;;6.20;4.00;;;;;;;-5.46;87.13;96793.16;2068964;28;20220;-71
2022/04/04 04:14:33;;;;;;;10.13;4.18;;;;;;;-5.58;86.89;96793.19;2066867;28;20232;-71
2022/04/04 04:15:35;;;;;;;7.60;4.40;;;;;;;-5.67;87.35;96788.09;2068242;28;20313;-71
2022/04/04 04:16:37;;;;;;;6.40;4.40;;;;;;;-5.78;87.81;96786.41;2067500;28;20206;-71
2022/04/04 04:17:39;;;;;;;5.85;3.97;;;;;;;-5.92;88.05;96749.84;2070304;28;20201;-71
2022/04/04 04:18:41;;;;;;;9.43;4.40;;;;;;;-5.71;87.90;96776.19;2071050;28;20225;-71
2022/04/04 04:21:03;;;;;;;6.85;4.43;;;;;;;-5.67;87.75;96775.34;2067315;28;20233;-71
2022/04/04 04:22:04;;;;;;;9.85;4.80;;;;;;;-5.72;88.20;96769.38;2067675;28;20205;-71
2022/04/04 04:23:08;;;;;;;8.40;5.13;;;;;;;-5.72;88.39;96777.03;2067338;28;20205;-71
2022/04/04 04:24:09;;;;;;;5.75;3.60;;;;;;;-5.81;88.59;96771.09;2067762;28;20286;-71
2022/04/04 04:25:14;;;;;;;10.55;4.95;;;;;;;-5.84;88.67;96763.47;2067853;28;20233;-71
2022/04/04 04:26:17;;;;;;;7.78;4.32;;;;;;;-5.70;88.27;96775.31;2067774;28;20592;-71
2022/04/04 04:27:18;;;;;;;7.32;3.92;;;;;;;-5.67;87.41;96770.22;2068535;28;20212;-71
2022/04/04 04:28:20;;;;;;;8.07;4.10;;;;;;;-5.57;87.61;96782.09;2069384;28;20205;-71
2022/04/04 04:29:21;;;;;;;5.57;3.28;;;;;;;-5.61;87.34;96778.72;2066855;28;20202;-71
2022/04/04 04:30:23;;;;;;;5.95;3.97;;;;;;;-5.68;87.68;96771.94;2076164;28;20212;-71
2022/04/04 04:31:24;;;;;;;6.13;4.30;;;;;;;-5.76;87.31;96760.91;2075351;28;20225;-71
2022/04/04 04:32:26;;;;;;;7.07;4.40;;;;;;;-5.67;87.38;96777.88;2067554;28;20209;-71
2022/04/04 04:33:28;;;;;;;8.63;4.38;;;;;;;-5.66;87.54;96780.44;2068594;28;20632;-70
2022/04/04 04:34:29;;;;;;;6.43;4.13;;;;;;;-5.74;87.93;96773.63;2070017;28;20194;-71
2022/04/04 04:35:31;;;;;;;6.15;3.47;;;;;;;-5.73;87.69;96772.78;2067548;28;20201;-71
2022/04/04 04:36:32;;;;;;;7.50;4.35;;;;;;;-5.63;88.10;96777.03;2067004;28;20201;-70
2022/04/04 04:37:34;;;;;;;10.23;4.88;;;;;;;-5.62;87.78;96781.28;2067575;28;20204;-71
2022/04/04 04:38:36;;;;;;;12.18;4.80;;;;;;;-5.83;87.41;96736.25;2068747;28;20213;-71
2022/04/04 04:39:38;;;;;;;9.13;4.15;;;;;;;-5.63;87.70;96769.38;2067994;28;20209;-71
2022/04/04 04:40:39;;;;;;;7.43;4.63;;;;;;;-5.71;87.25;96760.88;2067331;28;20210;-71
2022/04/04 04:41:41;;;;;;;7.90;4.78;;;;;;;-5.66;87.91;96770.22;2067758;28;20211;-70
2022/04/04 04:42:44;;;;;;;7.95;4.65;;;;;;;-5.66;87.70;96769.38;2068420;28;20225;-71
2022/04/04 04:43:45;;;;;;;8.32;4.95;;;;;;;-5.52;86.90;96771.91;2068147;28;20558;-71
2022/04/04 04:44:48;;;;;;;9.60;4.60;;;;;;;-5.63;87.01;96770.19;2067552;28;20232;-71
2022/04/04 04:45:50;;;;;;;7.30;4.20;;;;;;;-5.74;86.99;96746.44;2066829;28;20261;-71
2022/04/04 04:46:52;;;;;;;11.30;4.15;;;;;;;-5.44;87.12;96771.00;2067544;28;20216;-70
2022/04/04 04:47:55;;;;;;;7.22;4.18;;;;;;;-5.56;86.55;96774.44;2068358;28;20243;-71
2022/04/04 04:48:57;;;;;;;5.90;3.72;;;;;;;-5.69;87.20;96754.06;2070256;28;20227;-71
2022/04/04 04:49:59;;;;;;;5.75;3.70;;;;;;;-5.66;87.22;96777.03;2069498;28;20204;-71
2022/04/04 04:51:01;;;;;;;6.90;4.30;;;;;;;-5.63;86.73;96770.19;2077756;28;20225;-71
2022/04/04 04:52:03;;;;;;;8.52;4.40;;;;;;;-5.66;87.09;96775.34;2078867;28;20206;-71
2022/04/04 04:53:04;;;;;;;4.60;4.15;;;;;;;-5.60;87.14;96774.47;2068382;28;20202;-71
2022/04/04 04:54:06;;;;;;;7.22;4.47;;;;;;;-5.56;86.82;96776.16;2069530;28;20526;-70
2022/04/04 04:55:09;;;;;;;9.93;4.47;;;;;;;-5.62;86.72;96778.72;2068509;28;20198;-70